Terminal Aerodrome Forecast
Issued by NWS Corpus Christi, TX

Home | Current Version | Previous Version | Text Only | Print | Product List | Glossary On
Versions: 1 2 3 4 5 6 7 8 9 10 11 12 13 14 15 16
042
FTUS44 KCRP 260520
TAFVCT
TAF
KVCT 260520Z 2606/2706 10005KT P6SM VCSH SCT025 BKN250
     FM261000 09004KT 5SM BR BKN015 BKN200
      TEMPO 2611/2615 3SM SHRA OVC010
     FM261500 12010KT P6SM VCTS BKN025CB OVC120
      TEMPO 2615/2619 4SM TSRA OVC020CB
     FM261900 10012KT P6SM VCTS BKN030CB BKN120
      TEMPO 2619/2623 5SM TSRA BR OVC030CB
     FM270000 09008KT P6SM SCT030 BKN100=

USA.gov is the U.S. government's official web portal to all federal, state and local government web resources and services.